createdAt,value
2019-05-18T00:00:23.794Z,1001.10
2019-05-18T00:01:23.813Z,1001.03
2019-05-18T00:02:23.804Z,1001.03
2019-05-18T00:03:23.763Z,1001.04
2019-05-18T00:04:23.755Z,1001.10
2019-05-18T00:05:23.832Z,1001.11
2019-05-18T00:06:23.733Z,1001.11
2019-05-18T00:07:23.786Z,1001.07
2019-05-18T00:08:23.709Z,1001.10
2019-05-18T00:09:23.704Z,1001.09
2019-05-18T00:10:23.686Z,1001.11
2019-05-18T00:11:23.689Z,1001.08
2019-05-18T00:12:23.691Z,1001.09
2019-05-18T00:13:23.672Z,1001.08
2019-05-18T00:14:23.644Z,1001.08
2019-05-18T00:15:23.636Z,1001.10
2019-05-18T00:16:23.623Z,1001.10
2019-05-18T00:17:25.507Z,1001.09
2019-05-18T00:18:23.611Z,1001.07
2019-05-18T00:19:23.590Z,1001.10
2019-05-18T00:20:23.581Z,1001.14
2019-05-18T00:21:23.574Z,1001.16
2019-05-18T00:22:23.589Z,1001.14
2019-05-18T00:23:23.574Z,1001.16
2019-05-18T00:24:23.547Z,1001.09
2019-05-18T00:25:23.536Z,1001.10
2019-05-18T00:26:23.518Z,1001.07
2019-05-18T00:27:23.510Z,1001.07
2019-05-18T00:28:23.523Z,1001.06
2019-05-18T00:29:23.483Z,1001.01
2019-05-18T00:30:23.483Z,1001.04
2019-05-18T00:31:23.464Z,1001.06
2019-05-18T00:32:23.483Z,1001.06
2019-05-18T00:33:23.525Z,1000.98
2019-05-18T00:34:23.429Z,1001.03
2019-05-18T00:35:23.420Z,1000.98
2019-05-18T00:36:23.417Z,1000.97
2019-05-18T00:37:23.396Z,1000.99
2019-05-18T00:38:23.409Z,1000.96
2019-05-18T00:39:23.391Z,1000.99
2019-05-18T00:40:23.363Z,1000.97
2019-05-18T00:41:23.351Z,1000.96
2019-05-18T00:42:23.355Z,1000.97
2019-05-18T00:43:23.364Z,1001.03
2019-05-18T00:44:23.323Z,1001.01
2019-05-18T00:45:23.319Z,1000.95
2019-05-18T00:46:23.427Z,1000.93
2019-05-18T00:47:23.289Z,1000.91
2019-05-18T00:48:23.316Z,1000.89
2019-05-18T00:49:23.269Z,1000.91
2019-05-18T00:50:23.259Z,1000.92
2019-05-18T00:51:23.554Z,1000.91
2019-05-18T00:52:23.235Z,1000.85
2019-05-18T00:53:23.257Z,1000.85
2019-05-18T00:54:23.222Z,1000.83
2019-05-18T00:55:23.206Z,1000.85
2019-05-18T00:56:23.190Z,1000.83
2019-05-18T00:57:23.191Z,1000.84
2019-05-18T00:58:23.196Z,1000.80
2019-05-18T00:59:23.160Z,1000.83
2019-05-18T01:00:23.216Z,1000.83
2019-05-18T01:01:23.142Z,1000.84
2019-05-18T01:02:23.136Z,1000.88
2019-05-18T01:03:23.151Z,1000.91
2019-05-18T01:04:23.106Z,1000.86
2019-05-18T01:05:23.097Z,1000.86
2019-05-18T01:06:23.091Z,1000.81
2019-05-18T01:07:23.077Z,1000.82
2019-05-18T01:08:23.103Z,1000.83
2019-05-18T01:09:23.053Z,1000.78
2019-05-18T01:10:23.041Z,1000.80
2019-05-18T01:11:23.030Z,1000.79
2019-05-18T01:12:23.032Z,1000.80
2019-05-18T01:13:23.007Z,1000.83
2019-05-18T01:14:23.026Z,1000.80
2019-05-18T01:15:22.986Z,1000.74
2019-05-18T01:16:23.022Z,1000.76
2019-05-18T01:17:23.069Z,1000.73
2019-05-18T01:18:22.957Z,1000.78
2019-05-18T01:19:22.981Z,1000.80
2019-05-18T01:20:22.942Z,1000.85
2019-05-18T01:21:22.924Z,1000.80
2019-05-18T01:22:22.919Z,1000.80
2019-05-18T01:23:22.914Z,1000.80
2019-05-18T01:24:22.918Z,1000.73
2019-05-18T01:25:22.879Z,1000.68
2019-05-18T01:26:22.869Z,1000.73
2019-05-18T01:27:22.868Z,1000.75
2019-05-18T01:28:22.865Z,1000.77
2019-05-18T01:29:22.871Z,1000.79
2019-05-18T01:30:22.828Z,1000.77
2019-05-18T01:31:22.814Z,1000.72
2019-05-18T01:32:22.805Z,1000.81
2019-05-18T01:33:22.803Z,1000.75
2019-05-18T01:34:22.814Z,1000.73
2019-05-18T01:35:22.802Z,1000.70
2019-05-18T01:36:22.757Z,1000.73
2019-05-18T01:37:22.751Z,1000.81
2019-05-18T01:38:22.739Z,1000.76
2019-05-18T01:39:22.763Z,1000.76
2019-05-18T01:40:22.728Z,1000.72
2019-05-18T01:41:22.705Z,1000.73
2019-05-18T01:42:22.695Z,1000.77
2019-05-18T01:43:22.688Z,1000.79
2019-05-18T01:44:22.700Z,1000.76
2019-05-18T01:45:22.687Z,1000.80
2019-05-18T01:46:22.663Z,1000.76
2019-05-18T01:47:22.641Z,1000.81
2019-05-18T01:48:22.639Z,1000.75
2019-05-18T01:49:22.651Z,1000.78
2019-05-18T01:50:22.635Z,1000.82
2019-05-18T01:51:22.599Z,1000.75
2019-05-18T01:52:22.598Z,1000.75
2019-05-18T01:53:22.577Z,1000.78
2019-05-18T01:54:22.564Z,1000.73
2019-05-18T01:55:22.586Z,1000.74
2019-05-18T01:56:22.545Z,1000.77
2019-05-18T01:57:22.537Z,1000.73
2019-05-18T01:58:22.529Z,1000.75
2019-05-18T01:59:22.512Z,1000.78
2019-05-18T02:00:22.536Z,1000.78
2019-05-18T02:01:22.491Z,1000.77
2019-05-18T02:02:22.484Z,1000.77
2019-05-18T02:03:25.561Z,1000.79
2019-05-18T02:04:22.467Z,1000.75
2019-05-18T02:05:22.452Z,1000.72
2019-05-18T02:06:22.476Z,1000.75
2019-05-18T02:07:22.424Z,1000.79
2019-05-18T02:08:22.416Z,1000.75
2019-05-18T02:09:22.403Z,1000.79
2019-05-18T02:10:22.399Z,1000.81
2019-05-18T02:11:22.412Z,1000.82
2019-05-18T02:12:22.370Z,1000.79
2019-05-18T02:13:22.361Z,1000.78
2019-05-18T02:14:22.358Z,1000.74
2019-05-18T02:15:22.369Z,1000.80
2019-05-18T02:16:22.377Z,1000.78
2019-05-18T02:17:22.316Z,1000.73
2019-05-18T02:18:29.114Z,1000.80
2019-05-18T02:19:24.904Z,1000.75
2019-05-18T02:20:22.289Z,1000.71
2019-05-18T02:21:22.274Z,1000.78
2019-05-18T02:22:22.297Z,1000.77
2019-05-18T02:23:22.252Z,1000.69
2019-05-18T02:24:22.242Z,1000.68
2019-05-18T02:25:22.232Z,1000.75
2019-05-18T02:26:22.222Z,1000.70
2019-05-18T02:27:22.234Z,1000.67
2019-05-18T02:28:22.209Z,1000.70
2019-05-18T02:29:22.191Z,1000.68
2019-05-18T02:30:22.205Z,1000.61
2019-05-18T02:31:22.210Z,1000.62
2019-05-18T02:32:22.157Z,1000.64
2019-05-18T02:33:22.146Z,1000.63
2019-05-18T02:34:22.143Z,1000.63
2019-05-18T02:35:22.128Z,1000.64
2019-05-18T02:36:22.121Z,1000.69
2019-05-18T02:37:22.137Z,1000.65
2019-05-18T02:38:22.093Z,1000.66
2019-05-18T02:39:22.085Z,1000.63
2019-05-18T02:40:22.080Z,1000.63
2019-05-18T02:41:22.073Z,1000.65
2019-05-18T02:42:22.080Z,1000.62
2019-05-18T02:43:22.042Z,1000.68
2019-05-18T02:44:22.050Z,1000.59
2019-05-18T02:45:22.026Z,1000.68
2019-05-18T02:46:22.032Z,1000.67
2019-05-18T02:47:22.022Z,1000.62
2019-05-18T02:48:21.993Z,1000.62
2019-05-18T02:49:21.973Z,1000.62
2019-05-18T02:50:21.960Z,1000.61
2019-05-18T02:51:21.959Z,1000.60
2019-05-18T02:52:21.966Z,1000.65
2019-05-18T02:53:21.931Z,1000.69
2019-05-18T02:54:21.920Z,1000.69
2019-05-18T02:55:21.906Z,1000.66
2019-05-18T02:56:21.896Z,1000.68
2019-05-18T02:57:21.930Z,1000.66
2019-05-18T02:58:21.893Z,1000.62
2019-05-18T02:59:21.876Z,1000.66
2019-05-18T03:00:21.871Z,1000.66
2019-05-18T03:01:21.841Z,1000.61
2019-05-18T03:02:21.862Z,1000.67
2019-05-18T03:03:21.827Z,1000.59
2019-05-18T03:04:21.815Z,1000.62
2019-05-18T03:05:21.799Z,1000.63
2019-05-18T03:06:21.790Z,1000.66
2019-05-18T03:07:21.810Z,1000.59
2019-05-18T03:08:21.767Z,1000.67
2019-05-18T03:09:21.767Z,1000.62
2019-05-18T03:10:21.750Z,1000.62
2019-05-18T03:11:21.733Z,1000.62
2019-05-18T03:12:21.762Z,1000.65
2019-05-18T03:13:21.714Z,1000.69
2019-05-18T03:14:21.704Z,1000.69
2019-05-18T03:15:21.711Z,1000.62
2019-05-18T03:16:21.691Z,1000.59
2019-05-18T03:17:21.670Z,1000.62
2019-05-18T03:18:21.688Z,1000.61
2019-05-18T03:19:21.695Z,1000.57
2019-05-18T03:20:21.638Z,1000.59
2019-05-18T03:21:21.634Z,1000.59
2019-05-18T03:22:21.636Z,1000.58
2019-05-18T03:23:21.650Z,1000.56
2019-05-18T03:24:21.593Z,1000.62
2019-05-18T03:25:21.581Z,1000.56
2019-05-18T03:26:21.578Z,1000.56
2019-05-18T03:27:21.579Z,1000.59
2019-05-18T03:28:21.595Z,1000.57
2019-05-18T03:29:21.539Z,1000.57
2019-05-18T03:30:21.530Z,1000.58
2019-05-18T03:31:21.523Z,1000.53
2019-05-18T03:32:21.509Z,1000.56
2019-05-18T03:33:28.076Z,1000.47
2019-05-18T03:34:22.528Z,1000.53
2019-05-18T03:35:21.475Z,1000.52
2019-05-18T03:36:21.464Z,1000.46
2019-05-18T03:37:21.457Z,1000.46
2019-05-18T03:38:21.446Z,1000.43
2019-05-18T03:39:21.465Z,1000.49
2019-05-18T03:40:21.430Z,1000.48
2019-05-18T03:41:21.424Z,1000.51
2019-05-18T03:42:21.431Z,1000.45
2019-05-18T03:43:21.391Z,1000.47
2019-05-18T03:44:21.406Z,1000.50
2019-05-18T03:45:21.367Z,1000.54
2019-05-18T03:46:23.895Z,1000.54
2019-05-18T03:47:21.344Z,1000.53
2019-05-18T03:48:21.336Z,1000.53
2019-05-18T03:49:26.628Z,1000.56
2019-05-18T03:50:22.311Z,1000.51
2019-05-18T03:51:21.300Z,1000.49
2019-05-18T03:52:21.311Z,1000.50
2019-05-18T03:53:21.280Z,1000.50
2019-05-18T03:54:21.293Z,1000.47
2019-05-18T03:55:21.259Z,1000.48
2019-05-18T03:56:21.252Z,1000.46
2019-05-18T03:57:21.239Z,1000.51
2019-05-18T03:58:21.234Z,1000.49
2019-05-18T03:59:21.251Z,1000.50
2019-05-18T04:00:21.204Z,1000.50
2019-05-18T04:01:21.200Z,1000.54
2019-05-18T04:02:21.183Z,1000.56
2019-05-18T04:03:21.171Z,1000.47
2019-05-18T04:04:21.204Z,1000.53
2019-05-18T04:05:21.156Z,1000.56
2019-05-18T04:06:21.140Z,1000.57
2019-05-18T04:07:21.133Z,1000.50
2019-05-18T04:08:21.120Z,1000.47
2019-05-18T04:09:21.111Z,1000.55
2019-05-18T04:10:21.139Z,1000.52
2019-05-18T04:11:21.087Z,1000.56
2019-05-18T04:12:21.083Z,1000.57
2019-05-18T04:13:21.069Z,1000.59
2019-05-18T04:14:21.102Z,1000.59
2019-05-18T04:15:21.046Z,1000.54
2019-05-18T04:16:21.044Z,1000.57
2019-05-18T04:17:21.028Z,1000.54
2019-05-18T04:18:21.012Z,1000.58
2019-05-18T04:19:21.029Z,1000.52
2019-05-18T04:20:20.989Z,1000.62
2019-05-18T04:21:20.982Z,1000.58
2019-05-18T04:22:20.969Z,1000.57
2019-05-18T04:23:20.962Z,1000.59
2019-05-18T04:24:20.974Z,1000.59
2019-05-18T04:25:20.970Z,1000.59
2019-05-18T04:26:20.922Z,1000.63
2019-05-18T04:27:20.931Z,1000.60
2019-05-18T04:28:20.915Z,1000.61
2019-05-18T04:29:20.898Z,1000.60
2019-05-18T04:30:20.917Z,1000.68
2019-05-18T04:31:20.873Z,1000.63
2019-05-18T04:32:20.861Z,1000.62
2019-05-18T04:33:20.857Z,1000.63
2019-05-18T04:34:20.848Z,1000.66
2019-05-18T04:35:20.827Z,1000.66
2019-05-18T04:36:20.857Z,1000.66
2019-05-18T04:37:20.806Z,1000.67
2019-05-18T04:38:20.798Z,1000.64
2019-05-18T04:39:20.787Z,1000.68
2019-05-18T04:40:20.824Z,1000.69
2019-05-18T04:41:20.765Z,1000.69
2019-05-18T04:42:20.755Z,1000.64
2019-05-18T04:43:20.740Z,1000.68
2019-05-18T04:44:20.767Z,1000.63
2019-05-18T04:45:20.750Z,1000.69
2019-05-18T04:46:20.787Z,1000.66
2019-05-18T04:47:20.698Z,1000.72
2019-05-18T04:48:20.695Z,1000.69
2019-05-18T04:49:20.685Z,1000.72
2019-05-18T04:50:20.701Z,1000.74
2019-05-18T04:51:20.665Z,1000.73
2019-05-18T04:52:20.659Z,1000.69
2019-05-18T04:53:20.637Z,1000.70
2019-05-18T04:54:20.628Z,1000.71
2019-05-18T04:55:20.653Z,1000.68
2019-05-18T04:56:20.605Z,1000.69
2019-05-18T04:57:20.594Z,1000.70
2019-05-18T04:58:20.612Z,1000.67
2019-05-18T04:59:20.568Z,1000.72
2019-05-18T05:00:20.592Z,1000.75
2019-05-18T05:01:20.608Z,1000.69
2019-05-18T05:02:20.541Z,1000.69
2019-05-18T05:03:20.541Z,1000.72
2019-05-18T05:04:20.556Z,1000.68
2019-05-18T05:05:20.512Z,1000.73
2019-05-18T05:06:20.531Z,1000.73
2019-05-18T05:07:20.484Z,1000.71
2019-05-18T05:08:20.474Z,1000.76
2019-05-18T05:09:20.465Z,1000.73
2019-05-18T05:10:20.452Z,1000.78
2019-05-18T05:11:20.466Z,1000.74
2019-05-18T05:12:20.427Z,1000.76
2019-05-18T05:13:20.416Z,1000.79
2019-05-18T05:14:20.411Z,1000.76
2019-05-18T05:15:20.397Z,1000.77
2019-05-18T05:16:20.439Z,1000.81
2019-05-18T05:17:20.382Z,1000.83
2019-05-18T05:18:20.369Z,1000.81
2019-05-18T05:19:20.359Z,1000.79
2019-05-18T05:20:20.410Z,1000.79
2019-05-18T05:21:20.364Z,1000.81
2019-05-18T05:22:20.328Z,1000.76
2019-05-18T05:23:20.316Z,1000.76
2019-05-18T05:24:20.298Z,1000.74
2019-05-18T05:25:20.291Z,1000.75
2019-05-18T05:26:20.302Z,1000.78
2019-05-18T05:27:20.265Z,1000.80
2019-05-18T05:28:20.261Z,1000.76
2019-05-18T05:29:20.260Z,1000.82
2019-05-18T05:30:20.238Z,1000.78
2019-05-18T05:31:20.268Z,1000.81
2019-05-18T05:32:20.245Z,1000.79
2019-05-18T05:33:20.206Z,1000.82
2019-05-18T05:34:20.203Z,1000.79
2019-05-18T05:35:20.181Z,1000.85
2019-05-18T05:36:20.174Z,1000.81
2019-05-18T05:37:20.196Z,1000.81
2019-05-18T05:38:20.206Z,1000.83
2019-05-18T05:39:20.137Z,1000.83
2019-05-18T05:40:20.130Z,1000.79
2019-05-18T05:41:20.124Z,1000.70
2019-05-18T05:42:20.109Z,1000.77
2019-05-18T05:43:20.130Z,1000.76
2019-05-18T05:44:20.090Z,1000.79
2019-05-18T05:45:20.081Z,1000.79
2019-05-18T05:46:20.070Z,1000.78
2019-05-18T05:47:20.048Z,1000.77
2019-05-18T05:48:20.079Z,1000.75
2019-05-18T05:49:20.029Z,1000.79
2019-05-18T05:50:34.744Z,1000.78
2019-05-18T05:51:21.009Z,1000.73
2019-05-18T05:52:20.015Z,1000.75
2019-05-18T05:53:19.988Z,1000.74
2019-05-18T05:54:19.997Z,1000.73
2019-05-18T05:55:19.965Z,1000.75
2019-05-18T05:56:19.951Z,1000.70
2019-05-18T05:57:19.943Z,1000.77
2019-05-18T05:58:21.092Z,1000.74
2019-05-18T05:59:19.930Z,1000.78
2019-05-18T06:00:19.909Z,1000.80
2019-05-18T06:01:19.899Z,1000.78
2019-05-18T06:02:19.887Z,1000.77
2019-05-18T06:03:19.908Z,1000.77
2019-05-18T06:04:19.875Z,1000.76
2019-05-18T06:05:19.854Z,1000.79
2019-05-18T06:06:22.971Z,1000.89
2019-05-18T06:07:19.830Z,1000.87
2019-05-18T06:08:19.854Z,1000.89
2019-05-18T06:09:19.813Z,1000.91
2019-05-18T06:10:19.816Z,1000.92
2019-05-18T06:11:19.794Z,1000.93
2019-05-18T06:12:19.783Z,1000.92
2019-05-18T06:13:19.803Z,1000.92
2019-05-18T06:14:19.816Z,1000.94
2019-05-18T06:15:19.759Z,1000.97
2019-05-18T06:16:19.751Z,1000.98
2019-05-18T06:17:19.723Z,1000.95
2019-05-18T06:18:19.713Z,1000.98
2019-05-18T06:19:19.735Z,1001.02
2019-05-18T06:20:19.693Z,1000.99
2019-05-18T06:21:19.684Z,1001.04
2019-05-18T06:22:19.682Z,1001.00
2019-05-18T06:23:19.665Z,1001.01
2019-05-18T06:24:19.851Z,1001.05
2019-05-18T06:25:19.643Z,1001.04
2019-05-18T06:26:19.630Z,1001.02
2019-05-18T06:27:19.638Z,1000.98
2019-05-18T06:28:19.607Z,1000.96
2019-05-18T06:29:19.625Z,1000.96
2019-05-18T06:30:19.614Z,1000.97
2019-05-18T06:31:22.823Z,1001.01
2019-05-18T06:32:19.567Z,1001.03
2019-05-18T06:33:19.558Z,1000.96
2019-05-18T06:34:19.585Z,1000.96
2019-05-18T06:35:19.534Z,1000.96
2019-05-18T06:36:19.522Z,1000.92
2019-05-18T06:37:19.516Z,1001.00
2019-05-18T06:38:19.502Z,1001.04
2019-05-18T06:39:19.538Z,1000.95
2019-05-18T06:40:19.490Z,1000.95
2019-05-18T06:41:19.474Z,1000.97
2019-05-18T06:42:19.455Z,1000.98
2019-05-18T06:43:19.451Z,1000.97
2019-05-18T06:44:19.444Z,1000.97
2019-05-18T06:45:19.459Z,1000.99
2019-05-18T06:46:19.413Z,1001.09
2019-05-18T06:47:19.410Z,1001.11
2019-05-18T06:48:19.404Z,1001.09
2019-05-18T06:49:19.415Z,1001.08
2019-05-18T06:50:19.405Z,1001.08
2019-05-18T06:51:19.360Z,1001.11
2019-05-18T06:52:19.349Z,1001.16
2019-05-18T06:53:21.618Z,1001.11
2019-05-18T06:54:19.325Z,1001.14
2019-05-18T06:55:19.353Z,1001.18
2019-05-18T06:56:19.304Z,1001.15
2019-05-18T06:57:19.295Z,1001.15
2019-05-18T06:58:19.293Z,1001.12
2019-05-18T06:59:19.277Z,1001.14
2019-05-18T07:00:19.793Z,1001.10
2019-05-18T07:01:19.260Z,1001.09
2019-05-18T07:02:19.415Z,1001.10
2019-05-18T07:03:19.615Z,1001.10
2019-05-18T07:04:19.220Z,1001.08
2019-05-18T07:05:19.235Z,1001.09
2019-05-18T07:06:19.200Z,1001.10
2019-05-18T07:07:19.207Z,1001.04
2019-05-18T07:08:19.175Z,1001.02
2019-05-18T07:09:19.169Z,1000.98
2019-05-18T07:10:19.191Z,1001.10
2019-05-18T07:11:19.147Z,1001.03
2019-05-18T07:12:19.141Z,1001.03
2019-05-18T07:13:19.120Z,1001.02
2019-05-18T07:14:25.821Z,1001.10
2019-05-18T07:15:20.129Z,1001.06
2019-05-18T07:16:19.102Z,1001.14
2019-05-18T07:17:19.094Z,1001.04
2019-05-18T07:18:19.077Z,1001.10
2019-05-18T07:19:19.055Z,1001.15
2019-05-18T07:20:19.050Z,1001.08
2019-05-18T07:21:22.285Z,1001.11
2019-05-18T07:22:19.024Z,1001.20
2019-05-18T07:23:19.030Z,1001.10
2019-05-18T07:24:19.027Z,1001.08
2019-05-18T07:25:19.028Z,1001.16
2019-05-18T07:26:18.989Z,1001.16
2019-05-18T07:27:18.977Z,1001.13
2019-05-18T07:28:18.966Z,1001.16
2019-05-18T07:29:18.955Z,1001.14
2019-05-18T07:30:18.942Z,1001.16
2019-05-18T07:31:18.956Z,1001.18
2019-05-18T07:32:18.926Z,1001.17
2019-05-18T07:33:18.909Z,1001.18
2019-05-18T07:34:18.906Z,1001.20
2019-05-18T07:35:18.883Z,1001.08
2019-05-18T07:36:18.904Z,1001.19
2019-05-18T07:37:18.865Z,1001.15
2019-05-18T07:38:18.855Z,1001.16
2019-05-18T07:39:18.847Z,1001.13
2019-05-18T07:40:18.828Z,1001.21
2019-05-18T07:41:18.853Z,1001.21
2019-05-18T07:42:18.841Z,1001.13
2019-05-18T07:43:18.802Z,1001.20
2019-05-18T07:44:18.799Z,1001.22
2019-05-18T07:45:18.776Z,1001.19
2019-05-18T07:46:18.809Z,1001.25
2019-05-18T07:47:18.757Z,1001.27
2019-05-18T07:48:18.750Z,1001.34
2019-05-18T07:49:18.733Z,1001.29
2019-05-18T07:50:18.735Z,1001.24
2019-05-18T07:51:18.743Z,1001.29
2019-05-18T07:52:18.698Z,1001.29
2019-05-18T07:53:18.694Z,1001.29
2019-05-18T07:54:18.685Z,1001.30
2019-05-18T07:55:18.676Z,1001.32
2019-05-18T07:56:18.702Z,1001.36
2019-05-18T07:57:18.679Z,1001.34
2019-05-18T07:58:18.639Z,1001.38
2019-05-18T07:59:19.922Z,1001.34
2019-05-18T08:00:18.613Z,1001.36
2019-05-18T08:01:18.605Z,1001.32
2019-05-18T08:02:18.621Z,1001.32
2019-05-18T08:03:18.610Z,1001.29
2019-05-18T08:04:18.569Z,1001.34
2019-05-18T08:05:18.569Z,1001.35
2019-05-18T08:06:18.547Z,1001.34
2019-05-18T08:07:18.580Z,1001.32
2019-05-18T08:08:18.557Z,1001.37
2019-05-18T08:09:18.522Z,1001.35
2019-05-18T08:10:18.547Z,1001.30
2019-05-18T08:11:18.493Z,1001.34
2019-05-18T08:12:18.509Z,1001.26
2019-05-18T08:13:18.482Z,1001.27
2019-05-18T08:14:18.472Z,1001.28
2019-05-18T08:15:18.489Z,1001.29
2019-05-18T08:16:18.446Z,1001.31
2019-05-18T08:17:18.461Z,1001.32
2019-05-18T08:18:18.495Z,1001.33
2019-05-18T08:19:18.411Z,1001.33
2019-05-18T08:20:18.397Z,1001.31
2019-05-18T08:21:18.394Z,1001.32
2019-05-18T08:22:18.420Z,1001.28
2019-05-18T08:23:18.375Z,1001.27
2019-05-18T08:24:18.356Z,1001.32
2019-05-18T08:25:18.342Z,1001.34
2019-05-18T08:26:18.335Z,1001.27
2019-05-18T08:27:18.378Z,1001.27
2019-05-18T08:28:18.317Z,1001.33
2019-05-18T08:29:18.409Z,1001.34
2019-05-18T08:30:18.290Z,1001.28
2019-05-18T08:31:18.279Z,1001.31
2019-05-18T08:32:18.342Z,1001.30
2019-05-18T08:33:18.719Z,1001.30
2019-05-18T08:34:18.254Z,1001.31
2019-05-18T08:35:18.235Z,1001.31
2019-05-18T08:36:18.235Z,1001.30
2019-05-18T08:37:18.217Z,1001.31
2019-05-18T08:38:18.203Z,1001.31
2019-05-18T08:39:18.241Z,1001.33
2019-05-18T08:40:18.183Z,1001.34
2019-05-18T08:41:18.170Z,1001.31
2019-05-18T08:42:18.164Z,1001.36
2019-05-18T08:43:18.182Z,1001.35
2019-05-18T08:44:18.149Z,1001.31
2019-05-18T08:45:18.129Z,1001.40
2019-05-18T08:46:18.118Z,1001.36
2019-05-18T08:47:18.121Z,1001.40
2019-05-18T08:48:18.135Z,1001.38
2019-05-18T08:49:18.177Z,1001.39
2019-05-18T08:50:18.076Z,1001.37
2019-05-18T08:51:18.061Z,1001.37
2019-05-18T08:52:18.049Z,1001.38
2019-05-18T08:53:18.037Z,1001.40
2019-05-18T08:54:18.055Z,1001.39
2019-05-18T08:55:18.020Z,1001.43
2019-05-18T08:56:18.026Z,1001.40
2019-05-18T08:57:18.007Z,1001.35
2019-05-18T08:58:17.987Z,1001.36
2019-05-18T08:59:18.006Z,1001.38
2019-05-18T09:00:17.963Z,1001.37
2019-05-18T09:01:17.952Z,1001.41
2019-05-18T09:02:17.950Z,1001.33
2019-05-18T09:03:17.960Z,1001.36
2019-05-18T09:04:17.954Z,1001.36
2019-05-18T09:05:17.914Z,1001.36
2019-05-18T09:06:17.907Z,1001.35
2019-05-18T09:07:17.945Z,1001.31
2019-05-18T09:08:17.889Z,1001.30
2019-05-18T09:09:17.907Z,1001.33
2019-05-18T09:10:17.858Z,1001.31
2019-05-18T09:11:17.845Z,1001.33
2019-05-18T09:12:17.835Z,1001.39
2019-05-18T09:13:17.825Z,1001.33
2019-05-18T09:14:17.853Z,1001.41
2019-05-18T09:15:17.820Z,1001.40
2019-05-18T09:16:17.803Z,1001.41
2019-05-18T09:17:17.785Z,1001.41
2019-05-18T09:18:17.777Z,1001.41
2019-05-18T09:19:17.790Z,1001.41
2019-05-18T09:20:17.796Z,1001.37
2019-05-18T09:21:17.740Z,1001.44
2019-05-18T09:22:23.182Z,1001.39
2019-05-18T09:23:18.726Z,1001.39
2019-05-18T09:24:17.731Z,1001.35
2019-05-18T09:25:17.725Z,1001.39
2019-05-18T09:26:17.694Z,1001.40
2019-05-18T09:27:17.672Z,1001.41
2019-05-18T09:28:17.660Z,1001.41
2019-05-18T09:29:17.657Z,1001.48
2019-05-18T09:30:17.665Z,1001.42
2019-05-18T09:31:17.640Z,1001.46
2019-05-18T09:32:17.631Z,1001.43
2019-05-18T09:33:17.612Z,1001.45
2019-05-18T09:34:17.596Z,1001.40
2019-05-18T09:35:17.616Z,1001.37
2019-05-18T09:36:17.574Z,1001.39
2019-05-18T09:37:17.568Z,1001.48
2019-05-18T09:38:17.668Z,1001.43
2019-05-18T09:39:17.550Z,1001.39
2019-05-18T09:40:17.559Z,1001.31
2019-05-18T09:41:17.520Z,1001.37
2019-05-18T09:42:17.526Z,1001.41
2019-05-18T09:43:17.505Z,1001.43
2019-05-18T09:44:17.491Z,1001.34
2019-05-18T09:45:17.532Z,1001.41
2019-05-18T09:46:17.470Z,1001.42
2019-05-18T09:47:17.456Z,1001.35
2019-05-18T09:48:17.445Z,1001.35
2019-05-18T09:49:17.438Z,1001.43
2019-05-18T09:50:17.457Z,1001.42
2019-05-18T09:51:17.413Z,1001.35
2019-05-18T09:52:17.409Z,1001.40
2019-05-18T09:53:17.395Z,1001.43
2019-05-18T09:54:17.381Z,1001.43
2019-05-18T09:55:17.567Z,1001.37
2019-05-18T09:56:17.449Z,1001.35
2019-05-18T09:57:17.354Z,1001.38
2019-05-18T09:58:17.359Z,1001.36
2019-05-18T09:59:17.330Z,1001.36
2019-05-18T10:00:17.359Z,1001.45
2019-05-18T10:01:17.305Z,1001.40
2019-05-18T10:02:17.293Z,1001.32
2019-05-18T10:03:17.292Z,1001.32
2019-05-18T10:04:17.285Z,1001.39
2019-05-18T10:05:17.291Z,1001.46
2019-05-18T10:06:17.256Z,1001.32
2019-05-18T10:07:17.241Z,1001.29
2019-05-18T10:08:17.228Z,1001.39
2019-05-18T10:09:17.217Z,1001.40
2019-05-18T10:10:17.212Z,1001.37
2019-05-18T10:11:17.757Z,1001.30
2019-05-18T10:12:17.190Z,1001.32
2019-05-18T10:13:17.184Z,1001.36
2019-05-18T10:14:17.167Z,1001.34
2019-05-18T10:15:17.230Z,1001.36
2019-05-18T10:16:17.270Z,1001.36
2019-05-18T10:17:17.133Z,1001.34
2019-05-18T10:18:17.125Z,1001.34
2019-05-18T10:19:17.379Z,1001.37
2019-05-18T10:20:17.102Z,1001.26
2019-05-18T10:21:17.151Z,1001.34
2019-05-18T10:22:17.087Z,1001.33
2019-05-18T10:23:17.070Z,1001.34
2019-05-18T10:24:17.058Z,1001.37
2019-05-18T10:25:17.770Z,1001.35
2019-05-18T10:26:17.065Z,1001.30
2019-05-18T10:27:17.032Z,1001.28
2019-05-18T10:28:17.021Z,1001.31
2019-05-18T10:29:17.339Z,1001.31
2019-05-18T10:30:16.998Z,1001.28
2019-05-18T10:31:17.004Z,1001.33
2019-05-18T10:32:16.983Z,1001.30
2019-05-18T10:33:16.958Z,1001.29
2019-05-18T10:34:16.952Z,1001.27
2019-05-18T10:35:16.955Z,1001.28
2019-05-18T10:36:16.958Z,1001.23
2019-05-18T10:37:16.945Z,1001.27
2019-05-18T10:38:16.905Z,1001.23
2019-05-18T10:39:16.900Z,1001.21
2019-05-18T10:40:16.895Z,1001.24
2019-05-18T10:41:16.907Z,1001.23
2019-05-18T10:42:16.895Z,1001.24
2019-05-18T10:43:16.853Z,1001.23
2019-05-18T10:44:16.841Z,1001.23
2019-05-18T10:45:16.828Z,1001.23
2019-05-18T10:46:16.827Z,1001.25
2019-05-18T10:47:16.841Z,1001.27
2019-05-18T10:48:16.801Z,1001.26
2019-05-18T10:49:16.784Z,1001.24
2019-05-18T10:50:16.775Z,1001.26
2019-05-18T10:51:16.765Z,1001.22
2019-05-18T10:52:16.784Z,1001.23
2019-05-18T10:53:28.451Z,1001.29
2019-05-18T10:54:17.734Z,1001.29
2019-05-18T10:55:16.724Z,1001.26
2019-05-18T10:56:16.710Z,1001.27
2019-05-18T10:57:16.721Z,1001.26
2019-05-18T10:58:16.697Z,1001.28
2019-05-18T10:59:16.688Z,1001.25
2019-05-18T11:00:16.673Z,1001.26
2019-05-18T11:01:16.667Z,1001.25
2019-05-18T11:02:16.676Z,1001.20
2019-05-18T11:03:16.644Z,1001.23
2019-05-18T11:04:16.641Z,1001.19
2019-05-18T11:05:16.619Z,1001.16
2019-05-18T11:06:16.601Z,1001.13
2019-05-18T11:07:16.628Z,1001.15
2019-05-18T11:08:16.579Z,1001.15
2019-05-18T11:09:16.567Z,1001.13
2019-05-18T11:10:16.564Z,1001.14
2019-05-18T11:11:16.547Z,1001.13
2019-05-18T11:12:16.568Z,1001.09
2019-05-18T11:13:17.393Z,1001.10
2019-05-18T11:14:18.888Z,1001.09
2019-05-18T11:15:16.505Z,1001.09
2019-05-18T11:16:16.491Z,1001.16
2019-05-18T11:17:16.486Z,1001.10
2019-05-18T11:18:16.500Z,1001.14
2019-05-18T11:19:16.465Z,1001.12
2019-05-18T11:20:16.454Z,1001.10
2019-05-18T11:21:16.439Z,1001.14
2019-05-18T11:22:16.437Z,1001.10
2019-05-18T11:23:16.455Z,1001.09
2019-05-18T11:24:16.406Z,1001.15
2019-05-18T11:25:16.411Z,1001.11
2019-05-18T11:26:16.385Z,1001.12
2019-05-18T11:27:16.383Z,1001.15
2019-05-18T11:28:16.391Z,1001.10
2019-05-18T11:29:16.354Z,1001.14
2019-05-18T11:30:16.346Z,1001.15
2019-05-18T11:31:16.345Z,1001.14
2019-05-18T11:32:16.323Z,1001.17
2019-05-18T11:33:16.349Z,1001.14
2019-05-18T11:34:16.330Z,1001.15
2019-05-18T11:35:16.288Z,1001.18
2019-05-18T11:36:16.279Z,1001.16
2019-05-18T11:37:16.282Z,1001.16
2019-05-18T11:38:16.254Z,1001.13
2019-05-18T11:39:16.272Z,1001.11
2019-05-18T11:40:16.231Z,1001.09
2019-05-18T11:41:16.221Z,1001.07
2019-05-18T11:42:16.220Z,1001.02
2019-05-18T11:43:16.209Z,1001.02
2019-05-18T11:44:16.218Z,1001.02
2019-05-18T11:45:16.190Z,1001.01
2019-05-18T11:46:16.167Z,1001.00
2019-05-18T11:47:16.162Z,1001.00
2019-05-18T11:48:16.157Z,1001.01
2019-05-18T11:49:16.179Z,1000.99
2019-05-18T11:50:16.127Z,1001.03
2019-05-18T11:51:16.117Z,1000.99
2019-05-18T11:52:16.103Z,1000.98
2019-05-18T11:53:16.096Z,1000.99
2019-05-18T11:54:16.112Z,1000.98
2019-05-18T11:55:16.081Z,1001.01
2019-05-18T11:56:16.062Z,1000.97
2019-05-18T11:57:16.052Z,1001.04
2019-05-18T11:58:16.036Z,1001.00
2019-05-18T11:59:16.088Z,1001.00
2019-05-18T12:00:16.023Z,1001.00
2019-05-18T12:01:16.015Z,1001.03
2019-05-18T12:02:16.002Z,1001.07
2019-05-18T12:03:15.987Z,1000.99
2019-05-18T12:04:16.002Z,1000.97
2019-05-18T12:05:15.996Z,1000.99